Time;durP1;ratioP1;P1;durP2;ratioP2;P2;SDS_P1;SDS_P2;PMS_P1;PMS_P2;Temp;Humidity;BMP_temperature;BMP_pressure;BME280_temperature;BME280_humidity;BME280_pressure;Samples;Min_cycle;Max_cycle;Signal;HPM_P1;HPM_P2
2023/05/29 00:00:25;;;;;;;;;;;16.40;99.90;;;;;;4973204;28;19953;-76
2023/05/29 00:02:50;;;;;;;;;;;16.40;99.90;;;;;;4973198;28;20423;-77
2023/05/29 00:05:16;;;;;;;;;;;16.40;99.90;;;;;;4972990;28;20359;-75
2023/05/29 00:07:42;;;;;;;;;;;16.40;99.90;;;;;;4973663;28;20044;-75
2023/05/29 00:10:08;;;;;;;;;;;16.40;99.90;;;;;;4973107;28;19997;-76
2023/05/29 00:12:34;;;;;;;;;;;16.40;99.90;;;;;;4972942;28;19917;-76
2023/05/29 00:15:00;;;;;;;;;;;16.50;99.90;;;;;;4971782;28;19953;-75
2023/05/29 00:17:26;;;;;;;;;;;16.50;99.90;;;;;;4972936;28;20278;-76
2023/05/29 00:19:52;;;;;;;;;;;16.60;99.90;;;;;;4972455;28;19961;-76
2023/05/29 00:22:17;;;;;;;;;;;16.60;99.90;;;;;;4972879;28;19910;-77
2023/05/29 00:24:43;;;;;;;;;;;16.60;99.90;;;;;;4972774;28;20374;-76
2023/05/29 00:27:09;;;;;;;;;;;16.60;99.90;;;;;;4972681;28;19963;-77
2023/05/29 00:29:36;;;;;;;;;;;16.50;99.90;;;;;;4972704;28;20417;-76
2023/05/29 00:32:02;;;;;;;;;;;16.50;99.90;;;;;;4972708;28;19913;-77
2023/05/29 00:34:27;;;;;;;;;;;16.40;99.90;;;;;;4972700;28;19917;-76
2023/05/29 00:36:55;;;;;;;;;;;16.40;99.90;;;;;;4972473;28;19913;-75
2023/05/29 00:39:21;;;;;;;;;;;16.30;99.90;;;;;;4972491;28;19910;-75
2023/05/29 00:41:50;;;;;;;;;;;16.30;99.90;;;;;;4971215;28;19961;-76
2023/05/29 00:44:19;;;;;;;;;;;16.20;99.90;;;;;;4972186;28;20466;-76
2023/05/29 00:46:45;;;;;;;;;;;16.10;99.90;;;;;;4970990;28;19913;-75
2023/05/29 00:49:11;;;;;;;;;;;16.10;99.90;;;;;;4972190;28;19917;-76
2023/05/29 00:51:37;;;;;;;;;;;16.00;99.90;;;;;;4972955;28;20001;-76
2023/05/29 00:54:04;;;;;;;;;;;16.00;99.90;;;;;;4973001;28;19997;-76
2023/05/29 00:56:30;;;;;;;;;;;15.90;99.90;;;;;;4972288;28;19914;-75
2023/05/29 00:58:55;;;;;;;;;;;15.90;99.90;;;;;;4971114;28;19910;-75
2023/05/29 01:01:21;;;;;;;;;;;15.90;99.90;;;;;;4972142;28;20414;-75
2023/05/29 01:03:48;;;;;;;;;;;15.80;99.90;;;;;;4971794;28;19922;-75
2023/05/29 01:06:14;;;;;;;;;;;15.80;99.90;;;;;;4971900;28;19968;-76
2023/05/29 01:08:39;;;;;;;;;;;15.70;99.90;;;;;;4971930;28;20386;-75
2023/05/29 01:11:12;;;;;;;;;;;15.70;99.90;;;;;;4970282;28;19916;-75
2023/05/29 01:13:39;;;;;;;;;;;15.60;99.90;;;;;;4971860;28;19967;-76
2023/05/29 01:16:08;;;;;;;;;;;15.60;99.90;;;;;;4971872;28;20359;-76
2023/05/29 01:18:37;;;;;;;;;;;15.50;99.90;;;;;;4971834;28;19910;-76
2023/05/29 01:21:10;;;;;;;;;;;15.50;99.90;;;;;;4986522;28;20441;-76
2023/05/29 01:23:55;;;;;;;;;;;15.40;99.90;;;;;;4970264;28;20290;-75
2023/05/29 01:26:25;;;;;;;;;;;15.40;99.90;;;;;;4970681;28;20433;-75
2023/05/29 01:28:56;;;;;;;;;;;15.40;99.90;;;;;;4971659;28;20333;-75
2023/05/29 01:31:23;;;;;;;;;;;15.30;99.90;;;;;;4969526;28;20363;-75
2023/05/29 01:33:55;;;;;;;;;;;15.30;99.90;;;;;;4970523;28;19906;-75
2023/05/29 01:36:21;;;;;;;;;;;15.30;99.90;;;;;;4971364;28;19913;-76
2023/05/29 01:38:48;;;;;;;;;;;15.30;99.90;;;;;;4970158;28;20012;-76
2023/05/29 01:41:14;;;;;;;;;;;15.20;99.90;;;;;;4970127;28;20017;-76
2023/05/29 01:43:40;;;;;;;;;;;15.20;99.90;;;;;;4971434;28;19969;-76
2023/05/29 01:46:05;;;;;;;;;;;15.10;99.90;;;;;;4971371;28;19910;-74
2023/05/29 01:48:31;;;;;;;;;;;15.10;99.90;;;;;;4971349;28;20335;-75
2023/05/29 01:50:57;;;;;;;;;;;15.10;99.90;;;;;;4971202;28;19960;-75
2023/05/29 01:53:23;;;;;;;;;;;15.00;99.90;;;;;;4970843;28;19906;-74
2023/05/29 01:55:49;;;;;;;;;;;15.00;99.90;;;;;;4971154;28;20388;-74
2023/05/29 01:58:16;;;;;;;;;;;15.00;99.90;;;;;;4969783;28;19916;-77
2023/05/29 02:00:41;;;;;;;;;;;14.90;99.90;;;;;;4971040;28;19906;-77
2023/05/29 02:03:07;;;;;;;;;;;14.90;99.90;;;;;;4970887;28;19918;-76
2023/05/29 02:05:33;;;;;;;;;;;14.90;99.90;;;;;;4971141;28;19917;-76
2023/05/29 02:07:58;;;;;;;;;;;14.90;99.90;;;;;;4971056;28;19906;-75
2023/05/29 02:10:23;;;;;;;;;;;14.90;99.90;;;;;;4969798;28;19968;-76
2023/05/29 02:12:50;;;;;;;;;;;14.90;99.90;;;;;;4970864;28;19914;-75
2023/05/29 02:15:16;;;;;;;;;;;14.90;99.90;;;;;;4969537;28;19957;-77
2023/05/29 02:17:41;;;;;;;;;;;14.80;99.90;;;;;;4971070;28;19944;-76
2023/05/29 02:20:07;;;;;;;;;;;14.80;99.90;;;;;;4970773;28;19910;-76
2023/05/29 02:22:32;;;;;;;;;;;14.70;99.90;;;;;;4970861;28;20362;-76
2023/05/29 02:24:58;;;;;;;;;;;14.70;99.90;;;;;;4970901;28;20370;-75
2023/05/29 02:27:23;;;;;;;;;;;14.70;99.90;;;;;;4969524;28;19914;-77
2023/05/29 02:29:49;;;;;;;;;;;14.70;99.90;;;;;;4970973;28;19921;-76
2023/05/29 02:32:14;;;;;;;;;;;14.70;99.90;;;;;;4971064;28;19917;-77
2023/05/29 02:34:40;;;;;;;;;;;14.70;99.90;;;;;;4970978;28;19960;-77
2023/05/29 02:37:06;;;;;;;;;;;14.60;99.90;;;;;;4970816;28;19910;-76
2023/05/29 02:39:31;;;;;;;;;;;14.70;99.90;;;;;;4969693;28;19957;-74
2023/05/29 02:41:57;;;;;;;;;;;14.70;99.90;;;;;;4972105;28;19925;-76
2023/05/29 02:44:22;;;;;;;;;;;14.60;99.90;;;;;;4973277;28;19925;-76
2023/05/29 02:46:48;;;;;;;;;;;14.60;99.90;;;;;;4974554;28;19906;-75
2023/05/29 02:49:13;;;;;;;;;;;14.60;99.90;;;;;;4974541;28;20432;-75
2023/05/29 02:51:39;;;;;;;;;;;14.60;99.90;;;;;;4974575;28;20286;-75
2023/05/29 02:54:04;;;;;;;;;;;14.60;99.90;;;;;;4974490;28;19910;-75
2023/05/29 02:56:30;;;;;;;;;;;14.70;99.90;;;;;;4989293;28;19925;-76
2023/05/29 02:58:55;;;;;;;;;;;14.70;99.90;;;;;;4974311;28;20290;-75
2023/05/29 03:01:21;;;;;;;;;;;14.70;99.90;;;;;;4974444;28;20450;-76
2023/05/29 03:03:46;;;;;;;;;;;14.70;99.90;;;;;;4972805;28;20454;-76
2023/05/29 03:06:12;;;;;;;;;;;14.80;99.90;;;;;;4974281;28;20001;-77
2023/05/29 03:08:40;;;;;;;;;;;14.80;99.90;;;;;;4972827;28;19996;-76
2023/05/29 03:11:10;;;;;;;;;;;14.80;99.90;;;;;;4973858;28;19906;-76
2023/05/29 03:13:36;;;;;;;;;;;14.90;99.90;;;;;;4972749;28;19910;-76
2023/05/29 03:16:02;;;;;;;;;;;15.00;99.90;;;;;;4974078;28;19910;-76
2023/05/29 03:18:27;;;;;;;;;;;15.10;99.90;;;;;;4974084;28;19945;-76
2023/05/29 03:20:53;;;;;;;;;;;15.20;99.90;;;;;;4974051;28;19914;-77
2023/05/29 03:23:19;;;;;;;;;;;15.20;99.90;;;;;;4973853;28;19914;-77
2023/05/29 03:25:45;;;;;;;;;;;15.20;99.90;;;;;;4973539;28;19914;-76
2023/05/29 03:28:10;;;;;;;;;;;15.30;99.90;;;;;;4973747;28;19914;-75
2023/05/29 03:30:36;;;;;;;;;;;15.20;99.90;;;;;;4973843;28;19916;-74
2023/05/29 03:33:03;;;;;;;;;;;15.30;99.90;;;;;;4973696;28;19910;-76
2023/05/29 03:35:29;;;;;;;;;;;15.30;99.90;;;;;;4973708;28;19906;-75
2023/05/29 03:37:55;;;;;;;;;;;15.30;99.90;;;;;;4973733;28;19961;-77
2023/05/29 03:40:20;;;;;;;;;;;15.30;99.90;;;;;;4973547;28;19914;-77
2023/05/29 03:42:46;;;;;;;;;;;15.30;99.90;;;;;;4972035;28;19952;-76
2023/05/29 03:45:11;;;;;;;;;;;15.30;99.90;;;;;;4973418;28;19910;-76
2023/05/29 03:47:37;;;;;;;;;;;15.40;99.90;;;;;;4973586;28;19906;-76
2023/05/29 03:50:02;;;;;;;;;;;15.40;99.90;;;;;;4973397;28;20367;-76
2023/05/29 03:52:28;;;;;;;;;;;15.40;99.90;;;;;;4973484;28;19906;-75
2023/05/29 03:54:53;;;;;;;;;;;15.40;99.90;;;;;;4971137;28;19916;-76
2023/05/29 03:57:19;;;;;;;;;;;15.50;99.90;;;;;;4973400;28;19906;-76
2023/05/29 03:59:45;;;;;;;;;;;15.50;99.90;;;;;;4973237;28;20287;-75
2023/05/29 04:02:10;;;;;;;;;;;15.60;99.90;;;;;;4973180;28;19921;-77
2023/05/29 04:04:36;;;;;;;;;;;15.60;99.90;;;;;;4973488;28;20311;-76
2023/05/29 04:07:01;;;;;;;;;;;15.60;99.90;;;;;;4973522;28;19953;-76
2023/05/29 04:09:27;;;;;;;;;;;15.80;99.90;;;;;;4973114;28;19910;-76
2023/05/29 04:11:54;;;;;;;;;;;15.90;99.90;;;;;;4973259;28;19906;-75
2023/05/29 04:14:20;;;;;;;;;;;16.00;99.90;;;;;;4971817;28;20379;-76
2023/05/29 04:16:46;;;;;;;;;;;16.10;99.90;;;;;;4972303;28;19913;-77
2023/05/29 04:19:11;;;;;;;;;;;16.20;99.90;;;;;;4972289;28;20306;-76
2023/05/29 04:21:37;;;;;;;;;;;16.40;99.90;;;;;;4972232;28;20384;-76
2023/05/29 04:24:02;;;;;;;;;;;16.50;99.90;;;;;;4972729;28;19918;-76
2023/05/29 04:26:28;;;;;;;;;;;16.70;99.90;;;;;;4972828;28;19913;-76
2023/05/29 04:28:57;;;;;;;;;;;16.80;99.90;;;;;;4972588;28;20393;-76
2023/05/29 04:31:26;;;;;;;;;;;17.00;99.90;;;;;;4972394;28;19907;-74
2023/05/29 04:33:54;;;;;;;;;;;17.10;99.90;;;;;;4971192;28;20573;-75
2023/05/29 04:36:26;;;;;;;;;;;17.40;99.90;;;;;;4972759;28;19938;-76
2023/05/29 04:38:55;;;;;;;;;;;17.50;99.90;;;;;;4972558;28;19916;-76
2023/05/29 04:41:29;;;;;;;;;;;17.70;99.90;;;;;;4987351;28;20435;-76
2023/05/29 04:43:56;;;;;;;;;;;17.80;99.90;;;;;;4972230;28;20782;-74
2023/05/29 04:46:22;;;;;;;;;;;17.90;99.90;;;;;;4971465;28;19910;-75
2023/05/29 04:48:48;;;;;;;;;;;18.10;99.90;;;;;;4970808;28;20370;-77
2023/05/29 04:51:13;;;;;;;;;;;18.20;99.90;;;;;;4972256;28;19945;-75
2023/05/29 04:53:40;;;;;;;;;;;18.40;99.90;;;;;;4986927;28;19912;-76
2023/05/29 04:56:06;;;;;;;;;;;18.60;99.90;;;;;;4972281;28;19910;-77
2023/05/29 04:58:32;;;;;;;;;;;18.70;99.90;;;;;;4971882;28;19914;-75
2023/05/29 05:00:57;;;;;;;;;;;18.80;99.90;;;;;;4971965;28;19910;-76
2023/05/29 05:03:24;;;;;;;;;;;19.10;99.90;;;;;;4971637;28;19918;-75
2023/05/29 05:05:49;;;;;;;;;;;19.30;99.90;;;;;;4986140;28;19945;-76
2023/05/29 05:08:15;;;;;;;;;;;19.60;99.90;;;;;;4971943;28;19956;-76
2023/05/29 05:10:41;;;;;;;;;;;19.90;99.90;;;;;;4971949;28;19916;-77
2023/05/29 05:13:07;;;;;;;;;;;20.10;99.90;;;;;;4971832;28;19906;-76
2023/05/29 05:15:32;;;;;;;;;;;20.30;99.90;;;;;;4971912;28;19960;-76
2023/05/29 05:17:58;;;;;;;;;;;20.50;99.90;;;;;;4971643;28;20350;-76
2023/05/29 05:20:23;;;;;;;;;;;20.70;99.90;;;;;;4971737;28;19914;-76
2023/05/29 05:22:49;;;;;;;;;;;20.80;98.60;;;;;;4971621;28;19910;-76
2023/05/29 05:25:15;;;;;;;;;;;21.10;93.50;;;;;;4971559;28;19906;-77
2023/05/29 05:27:40;;;;;;;;;;;21.20;91.80;;;;;;4971697;28;19953;-77
2023/05/29 05:30:06;;;;;;;;;;;21.30;91.90;;;;;;4971534;28;19953;-77
2023/05/29 05:32:32;;;;;;;;;;;21.40;91.60;;;;;;4986666;28;20296;-77
2023/05/29 05:34:58;;;;;;;;;;;21.50;90.90;;;;;;4971378;28;19906;-77
2023/05/29 05:37:23;;;;;;;;;;;21.70;90.50;;;;;;4970174;28;19906;-76
2023/05/29 05:39:50;;;;;;;;;;;22.00;90.10;;;;;;4971479;28;20000;-77
2023/05/29 05:42:16;;;;;;;;;;;22.20;89.70;;;;;;4971449;28;19913;-77
2023/05/29 05:44:41;;;;;;;;;;;22.40;81.40;;;;;;4971406;28;19914;-76
2023/05/29 05:47:07;;;;;;;;;;;22.50;83.90;;;;;;4971169;28;19906;-74
2023/05/29 05:49:33;;;;;;;;;;;22.60;81.40;;;;;;4969921;28;19906;-73
2023/05/29 05:51:58;;;;;;;;;;;22.80;82.40;;;;;;4971280;28;19980;-74
2023/05/29 05:54:24;;;;;;;;;;;23.50;80.30;;;;;;4971136;28;19913;-72
2023/05/29 05:56:50;;;;;;;;;;;24.00;74.70;;;;;;4971541;28;20344;-75
2023/05/29 05:59:15;;;;;;;;;;;24.60;70.50;;;;;;4970930;28;19906;-74
2023/05/29 06:01:41;;;;;;;;;;;24.70;66.60;;;;;;4971144;28;20433;-75
2023/05/29 06:04:06;;;;;;;;;;;24.60;63.80;;;;;;4970609;28;20409;-74
2023/05/29 06:06:35;;;;;;;;;;;24.50;68.10;;;;;;4971063;28;20401;-73
2023/05/29 06:09:01;;;;;;;;;;;24.90;64.10;;;;;;4969076;28;20306;-75
2023/05/29 06:11:26;;;;;;;;;;;25.70;64.10;;;;;;4969815;28;19910;-75
2023/05/29 06:13:52;;;;;;;;;;;26.50;63.10;;;;;;4970947;28;19922;-76
2023/05/29 06:16:18;;;;;;;;;;;27.60;58.80;;;;;;4970450;28;19917;-75
2023/05/29 06:18:47;;;;;;;;;;;28.70;54.00;;;;;;4970862;28;19910;-75
2023/05/29 06:21:12;;;;;;;;;;;29.60;51.20;;;;;;4970716;28;19910;-75
2023/05/29 06:23:38;;;;;;;;;;;29.40;51.70;;;;;;4971037;28;19925;-76
2023/05/29 06:26:03;;;;;;;;;;;29.00;51.60;;;;;;4970250;28;19906;-76
2023/05/29 06:28:29;;;;;;;;;;;28.70;51.30;;;;;;4969593;28;19906;-75
2023/05/29 06:30:55;;;;;;;;;;;28.40;50.20;;;;;;4969131;28;20366;-75
2023/05/29 06:33:21;;;;;;;;;;;28.50;51.90;;;;;;4969327;28;19909;-75
2023/05/29 06:35:47;;;;;;;;;;;29.00;49.20;;;;;;4970788;28;19917;-74
2023/05/29 06:38:16;;;;;;;;;;;29.60;48.90;;;;;;4969302;28;19914;-76
2023/05/29 06:40:41;;;;;;;;;;;30.10;48.50;;;;;;4970675;28;20011;-76
2023/05/29 06:43:09;;;;;;;;;;;30.40;50.70;;;;;;4970507;28;19973;-75
2023/05/29 06:45:34;;;;;;;;;;;30.00;51.50;;;;;;4970712;28;19921;-75
2023/05/29 06:48:00;;;;;;;;;;;29.80;52.50;;;;;;4985335;28;19910;-75
2023/05/29 06:50:26;;;;;;;;;;;29.50;51.40;;;;;;4970082;28;19965;-75
2023/05/29 06:52:51;;;;;;;;;;;29.10;52.50;;;;;;4970585;28;20394;-75
2023/05/29 06:55:17;;;;;;;;;;;28.90;52.70;;;;;;4968899;28;19914;-74
2023/05/29 06:57:42;;;;;;;;;;;28.70;54.10;;;;;;4969330;28;19914;-75
2023/05/29 07:00:10;;;;;;;;;;;28.60;55.30;;;;;;4985627;28;19906;-76
2023/05/29 07:02:36;;;;;;;;;;;28.70;55.80;;;;;;4970361;28;19914;-75
2023/05/29 07:05:01;;;;;;;;;;;28.50;55.90;;;;;;4985181;28;19926;-75
2023/05/29 07:07:27;;;;;;;;;;;28.20;56.40;;;;;;4969134;28;19914;-75
2023/05/29 07:09:52;;;;;;;;;;;28.20;54.20;;;;;;4969294;28;19953;-76
2023/05/29 07:12:18;;;;;;;;;;;28.00;54.50;;;;;;4969125;28;19989;-75
2023/05/29 07:14:44;;;;;;;;;;;27.90;55.60;;;;;;4968999;28;20816;-75
2023/05/29 07:17:10;;;;;;;;;;;27.90;56.70;;;;;;4970382;28;19954;-75
2023/05/29 07:19:35;;;;;;;;;;;28.10;55.50;;;;;;4970715;28;19944;-74
2023/05/29 07:22:01;;;;;;;;;;;28.10;54.60;;;;;;4970340;28;19914;-75
2023/05/29 07:24:26;;;;;;;;;;;28.00;54.90;;;;;;4969889;28;20429;-73
2023/05/29 07:26:52;;;;;;;;;;;27.80;56.70;;;;;;4970335;28;19910;-74
2023/05/29 07:29:20;;;;;;;;;;;27.90;55.60;;;;;;4971511;28;19906;-75
2023/05/29 07:31:46;;;;;;;;;;;27.90;55.60;;;;;;4973870;28;19910;-75
2023/05/29 07:34:11;;;;;;;;;;;27.90;54.90;;;;;;4972074;28;19912;-74
2023/05/29 07:36:55;;;;;;;;;;;27.90;54.50;;;;;;4973644;28;19925;-75
2023/05/29 07:39:21;;;;;;;;;;;27.80;55.00;;;;;;4972180;28;20004;-75
2023/05/29 07:41:46;;;;;;;;;;;28.00;54.90;;;;;;4973378;28;20339;-74
2023/05/29 07:44:12;;;;;;;;;;;28.20;54.20;;;;;;4973321;28;19914;-74
2023/05/29 07:46:37;;;;;;;;;;;28.70;53.10;;;;;;4971956;28;19961;-75
2023/05/29 07:49:03;;;;;;;;;;;29.20;52.00;;;;;;4973415;28;19906;-75
2023/05/29 07:51:28;;;;;;;;;;;29.80;50.50;;;;;;4973235;28;19910;-75
2023/05/29 07:53:54;;;;;;;;;;;30.30;48.30;;;;;;4988143;28;19914;-75
2023/05/29 07:56:19;;;;;;;;;;;30.80;47.10;;;;;;4972272;28;19964;-75
2023/05/29 07:58:46;;;;;;;;;;;31.00;46.90;;;;;;4972965;28;20386;-73
2023/05/29 08:01:12;;;;;;;;;;;30.90;47.80;;;;;;4971247;28;19921;-75
2023/05/29 08:03:37;;;;;;;;;;;30.90;47.40;;;;;;4972733;28;19925;-74
2023/05/29 08:06:03;;;;;;;;;;;30.70;46.60;;;;;;4972805;28;20436;-73
2023/05/29 08:08:28;;;;;;;;;;;30.30;46.50;;;;;;4972484;28;19910;-75
2023/05/29 08:10:54;;;;;;;;;;;30.00;47.50;;;;;;4972440;28;20056;-74
2023/05/29 08:13:20;;;;;;;;;;;29.90;47.60;;;;;;4972886;28;19956;-75
2023/05/29 08:15:45;;;;;;;;;;;29.60;47.60;;;;;;4972603;28;20107;-74
2023/05/29 08:18:11;;;;;;;;;;;29.50;49.60;;;;;;4970981;28;19921;-75
2023/05/29 08:20:36;;;;;;;;;;;29.70;49.90;;;;;;4971394;28;19910;-73
2023/05/29 08:23:02;;;;;;;;;;;29.70;49.80;;;;;;4987295;28;19914;-74
2023/05/29 08:25:27;;;;;;;;;;;29.60;48.30;;;;;;4987302;28;19910;-74
2023/05/29 08:27:53;;;;;;;;;;;29.50;50.50;;;;;;4972492;28;20008;-74
2023/05/29 08:30:19;;;;;;;;;;;29.80;48.30;;;;;;4972609;28;20057;-74
2023/05/29 08:32:44;;;;;;;;;;;29.90;48.20;;;;;;4972396;28;19909;-75
2023/05/29 08:35:10;;;;;;;;;;;29.60;48.40;;;;;;4972172;28;19913;-74
2023/05/29 08:37:35;;;;;;;;;;;29.60;49.30;;;;;;4972350;28;20420;-73
2023/05/29 08:40:01;;;;;;;;;;;29.10;50.30;;;;;;4970376;28;19969;-73
2023/05/29 08:42:29;;;;;;;;;;;28.70;51.70;;;;;;4972235;28;20454;-74
2023/05/29 08:44:57;;;;;;;;;;;28.50;52.00;;;;;;4972148;28;19918;-72
2023/05/29 08:47:23;;;;;;;;;;;28.20;52.80;;;;;;4972223;28;19961;-74
2023/05/29 08:49:51;;;;;;;;;;;28.10;52.00;;;;;;4972349;28;19910;-74
2023/05/29 08:52:19;;;;;;;;;;;28.20;51.80;;;;;;4970661;28;19906;-74
2023/05/29 08:54:45;;;;;;;;;;;28.20;52.90;;;;;;4970322;28;19910;-72
2023/05/29 08:57:11;;;;;;;;;;;28.10;54.50;;;;;;4986848;28;19979;-75
2023/05/29 08:59:39;;;;;;;;;;;28.00;55.00;;;;;;4970366;28;19905;-74
2023/05/29 09:02:05;;;;;;;;;;;27.80;56.00;;;;;;4971565;28;19910;-74
2023/05/29 09:04:31;;;;;;;;;;;27.80;56.20;;;;;;4970471;28;20143;-74
2023/05/29 09:06:58;;;;;;;;;;;27.80;55.80;;;;;;4971735;28;19913;-74
2023/05/29 09:09:26;;;;;;;;;;;28.00;55.80;;;;;;4971802;28;19976;-75
2023/05/29 09:11:53;;;;;;;;;;;28.20;56.70;;;;;;4970373;28;20397;-73
2023/05/29 09:14:35;;;;;;;;;;;28.40;56.50;;;;;;4972063;28;19925;-73
2023/05/29 09:17:01;;;;;;;;;;;28.60;56.10;;;;;;4971645;28;19910;-73
2023/05/29 09:19:26;;;;;;;;;;;28.50;56.00;;;;;;4986524;28;19996;-74
2023/05/29 09:21:59;;;;;;;;;;;28.70;54.60;;;;;;4970419;28;20345;-73
2023/05/29 09:24:27;;;;;;;;;;;28.90;53.80;;;;;;4969641;28;20024;-74
2023/05/29 09:26:53;;;;;;;;;;;29.10;53.80;;;;;;4970111;28;19910;-74
2023/05/29 09:29:20;;;;;;;;;;;29.10;55.00;;;;;;4969992;28;19917;-75
2023/05/29 09:31:46;;;;;;;;;;;29.40;54.00;;;;;;4970252;28;20306;-75
2023/05/29 09:34:12;;;;;;;;;;;29.60;52.00;;;;;;4971486;28;19917;-74
2023/05/29 09:36:38;;;;;;;;;;;29.70;53.00;;;;;;4969921;28;19910;-74
2023/05/29 09:39:04;;;;;;;;;;;29.70;52.90;;;;;;4970957;28;19910;-74
2023/05/29 09:41:32;;;;;;;;;;;29.60;52.50;;;;;;4970907;28;20005;-75
2023/05/29 09:44:00;;;;;;;;;;;30.10;53.20;;;;;;4970982;28;20430;-74
2023/05/29 09:46:26;;;;;;;;;;;30.80;50.70;;;;;;4969802;28;20030;-74
2023/05/29 09:48:51;;;;;;;;;;;31.00;49.20;;;;;;4969756;28;19914;-74
2023/05/29 09:51:23;;;;;;;;;;;31.00;50.50;;;;;;4970508;28;20276;-74
2023/05/29 09:54:01;;;;;;;;;;;30.90;48.10;;;;;;4970742;28;20437;-74
2023/05/29 09:56:26;;;;;;;;;;;30.70;48.70;;;;;;4969314;28;20367;-73
2023/05/29 09:58:53;;;;;;;;;;;30.50;49.80;;;;;;4971148;28;19933;-74
2023/05/29 10:01:19;;;;;;;;;;;30.40;49.60;;;;;;4970736;28;19906;-74
2023/05/29 10:03:45;;;;;;;;;;;30.00;49.10;;;;;;4970803;28;20393;-73
2023/05/29 10:06:16;;;;;;;;;;;29.80;50.40;;;;;;4971212;28;19914;-73
2023/05/29 10:08:45;;;;;;;;;;;29.60;50.90;;;;;;4971014;28;19914;-74
2023/05/29 10:11:15;;;;;;;;;;;29.60;50.60;;;;;;4971049;28;19993;-73
2023/05/29 10:13:41;;;;;;;;;;;29.40;51.70;;;;;;4971101;28;19906;-74
2023/05/29 10:16:08;;;;;;;;;;;28.90;52.20;;;;;;4971065;28;20005;-74
2023/05/29 10:18:37;;;;;;;;;;;28.50;53.30;;;;;;4971022;28;19914;-73
2023/05/29 10:21:04;;;;;;;;;;;28.20;55.00;;;;;;4970659;28;19917;-75
2023/05/29 10:23:30;;;;;;;;;;;28.10;54.90;;;;;;4971090;28;19949;-75
2023/05/29 10:26:04;;;;;;;;;;;28.00;54.40;;;;;;4970872;28;20417;-75
2023/05/29 10:28:30;;;;;;;;;;;27.70;55.30;;;;;;4970772;28;19906;-75
2023/05/29 10:31:05;;;;;;;;;;;27.60;55.70;;;;;;4970689;28;19906;-75
2023/05/29 10:33:43;;;;;;;;;;;27.60;56.60;;;;;;4970803;28;20017;-74
2023/05/29 10:36:21;;;;;;;;;;;27.60;55.50;;;;;;4971010;28;19913;-76
2023/05/29 10:38:47;;;;;;;;;;;27.40;55.70;;;;;;4970689;28;20002;-74
2023/05/29 10:41:28;;;;;;;;;;;27.10;56.70;;;;;;4970534;28;19910;-75
2023/05/29 10:43:57;;;;;;;;;;;27.10;57.20;;;;;;4970396;28;19924;-75
2023/05/29 10:46:43;;;;;;;;;;;27.20;57.50;;;;;;4970652;28;19913;-74
2023/05/29 10:49:18;;;;;;;;;;;27.30;57.20;;;;;;4963167;28;19910;-75
2023/05/29 10:51:43;;;;;;;;;;;27.40;56.00;;;;;;4970530;28;19906;-75
2023/05/29 10:54:09;;;;;;;;;;;27.40;56.30;;;;;;4969030;28;20029;-75
2023/05/29 10:56:35;;;;;;;;;;;27.40;57.00;;;;;;4970403;28;19906;-75
2023/05/29 10:59:01;;;;;;;;;;;27.50;56.80;;;;;;4970424;28;19913;-76
2023/05/29 11:01:28;;;;;;;;;;;27.50;55.90;;;;;;4970394;28;19910;-75
2023/05/29 11:04:15;;;;;;;;;;;27.40;56.00;;;;;;4972632;28;19933;-75
2023/05/29 11:06:41;;;;;;;;;;;27.10;56.50;;;;;;4973864;28;19914;-75
2023/05/29 11:09:25;;;;;;;;;;;27.10;56.60;;;;;;4973865;28;19910;-75
2023/05/29 11:12:10;;;;;;;;;;;27.30;57.00;;;;;;4988707;28;20363;-76
2023/05/29 11:14:48;;;;;;;;;;;27.30;56.70;;;;;;4974101;28;19906;-75
2023/05/29 11:17:29;;;;;;;;;;;27.70;56.20;;;;;;4973834;28;19988;-75
2023/05/29 11:19:56;;;;;;;;;;;27.70;55.60;;;;;;4973810;28;20388;-74
2023/05/29 11:22:23;;;;;;;;;;;27.70;56.40;;;;;;4973977;28;19921;-75
2023/05/29 11:24:51;;;;;;;;;;;27.80;56.20;;;;;;4973908;28;19949;-76
2023/05/29 11:27:16;;;;;;;;;;;27.80;57.00;;;;;;4973671;28;19906;-74
2023/05/29 11:29:42;;;;;;;;;;;27.60;56.70;;;;;;4973598;28;20334;-75
2023/05/29 11:32:12;;;;;;;;;;;27.40;58.10;;;;;;4973778;28;19906;-75
2023/05/29 11:34:40;;;;;;;;;;;27.50;57.20;;;;;;4972593;28;19910;-75
2023/05/29 11:37:05;;;;;;;;;;;27.40;57.90;;;;;;4973468;28;19957;-76
2023/05/29 11:39:35;;;;;;;;;;;27.30;57.30;;;;;;4973610;28;19914;-74
2023/05/29 11:42:01;;;;;;;;;;;27.20;57.20;;;;;;4973441;28;19910;-75
2023/05/29 11:44:27;;;;;;;;;;;26.90;57.10;;;;;;4973447;28;19918;-75
2023/05/29 11:47:01;;;;;;;;;;;26.50;58.30;;;;;;4973521;28;19910;-74
2023/05/29 11:49:28;;;;;;;;;;;26.30;59.20;;;;;;4973331;28;19909;-75
2023/05/29 11:51:53;;;;;;;;;;;26.30;60.30;;;;;;4973189;28;19992;-74
2023/05/29 11:54:19;;;;;;;;;;;26.40;59.40;;;;;;4973414;28;20005;-74
2023/05/29 11:56:47;;;;;;;;;;;26.50;60.20;;;;;;4973308;28;19980;-75
2023/05/29 11:59:12;;;;;;;;;;;26.70;59.70;;;;;;4973113;28;19910;-75
2023/05/29 12:01:38;;;;;;;;;;;26.80;60.10;;;;;;4973220;28;19906;-74
2023/05/29 12:04:13;;;;;;;;;;;27.00;60.70;;;;;;4972820;28;19921;-74
2023/05/29 12:06:38;;;;;;;;;;;27.30;59.20;;;;;;4972992;28;19944;-74
2023/05/29 12:09:05;;;;;;;;;;;27.40;57.20;;;;;;4972826;28;19910;-74
2023/05/29 12:11:31;;;;;;;;;;;27.70;57.20;;;;;;4972951;28;19921;-74
2023/05/29 12:14:00;;;;;;;;;;;27.70;57.70;;;;;;4972287;28;19906;-75
2023/05/29 12:16:27;;;;;;;;;;;27.70;53.60;;;;;;4972678;28;19910;-75
2023/05/29 12:18:53;;;;;;;;;;;27.70;53.30;;;;;;4972801;28;20514;-74
2023/05/29 12:21:19;;;;;;;;;;;27.60;53.90;;;;;;4972804;28;19997;-74
2023/05/29 12:23:45;;;;;;;;;;;27.50;56.50;;;;;;4972432;28;19926;-75
2023/05/29 12:26:12;;;;;;;;;;;27.40;55.60;;;;;;4972715;28;20460;-75
2023/05/29 12:28:42;;;;;;;;;;;27.40;56.60;;;;;;4987544;28;19914;-74
2023/05/29 12:31:07;;;;;;;;;;;27.40;54.50;;;;;;4972528;28;20565;-74
2023/05/29 12:33:33;;;;;;;;;;;27.30;56.20;;;;;;4972554;28;19917;-74
2023/05/29 12:36:03;;;;;;;;;;;27.30;57.00;;;;;;4972340;28;19960;-74
2023/05/29 12:38:30;;;;;;;;;;;27.30;55.30;;;;;;4972519;28;20001;-75
2023/05/29 12:40:55;;;;;;;;;;;27.30;57.10;;;;;;4972245;28;19910;-74
2023/05/29 12:43:21;;;;;;;;;;;27.50;55.20;;;;;;4972294;28;19928;-75
2023/05/29 12:45:53;;;;;;;;;;;27.70;55.20;;;;;;4972070;28;20000;-74
2023/05/29 12:48:21;;;;;;;;;;;27.70;55.60;;;;;;4972142;28;20541;-74
2023/05/29 12:50:48;;;;;;;;;;;27.60;55.20;;;;;;4972213;28;19906;-74
2023/05/29 12:53:15;;;;;;;;;;;27.80;54.60;;;;;;4971726;28;19910;-74
2023/05/29 12:55:41;;;;;;;;;;;27.80;55.00;;;;;;4972213;28;20018;-73
2023/05/29 12:58:08;;;;;;;;;;;27.60;52.90;;;;;;4971936;28;19906;-75
2023/05/29 13:00:34;;;;;;;;;;;27.60;56.10;;;;;;4972058;28;19912;-74
2023/05/29 13:03:01;;;;;;;;;;;27.70;54.40;;;;;;4971632;28;19933;-74
2023/05/29 13:05:26;;;;;;;;;;;27.90;55.20;;;;;;4971940;28;19921;-74
2023/05/29 13:07:52;;;;;;;;;;;28.10;54.90;;;;;;4971820;28;19906;-74
2023/05/29 13:10:19;;;;;;;;;;;28.10;52.90;;;;;;4971535;28;20023;-74
2023/05/29 13:12:45;;;;;;;;;;;28.20;56.00;;;;;;4970460;28;20330;-75
2023/05/29 13:15:12;;;;;;;;;;;28.40;54.70;;;;;;4971777;28;20419;-77
2023/05/29 13:17:40;;;;;;;;;;;28.60;54.40;;;;;;4971550;28;19906;-76
2023/05/29 13:20:08;;;;;;;;;;;28.70;53.50;;;;;;4971565;28;19936;-75
2023/05/29 13:22:33;;;;;;;;;;;28.70;53.10;;;;;;4971830;28;19910;-75
2023/05/29 13:24:59;;;;;;;;;;;28.60;51.40;;;;;;4971570;28;19921;-76
2023/05/29 13:27:25;;;;;;;;;;;28.60;52.90;;;;;;4970562;28;19913;-76
2023/05/29 13:29:50;;;;;;;;;;;28.50;52.60;;;;;;4971448;28;19913;-75
2023/05/29 13:32:16;;;;;;;;;;;28.30;53.40;;;;;;4971599;28;20279;-75
2023/05/29 13:34:42;;;;;;;;;;;28.10;54.80;;;;;;4971248;28;19914;-75
2023/05/29 13:37:07;;;;;;;;;;;28.20;54.60;;;;;;4971234;28;19913;-76
2023/05/29 13:39:33;;;;;;;;;;;28.20;53.50;;;;;;4971318;28;19910;-75
2023/05/29 13:41:58;;;;;;;;;;;28.20;53.60;;;;;;4970972;28;19911;-75
2023/05/29 13:44:25;;;;;;;;;;;28.10;54.20;;;;;;4971765;28;19917;-76
2023/05/29 13:46:50;;;;;;;;;;;27.90;55.00;;;;;;4971465;28;20283;-75
2023/05/29 13:49:16;;;;;;;;;;;27.70;54.00;;;;;;4971103;28;19906;-75
2023/05/29 13:51:42;;;;;;;;;;;27.40;56.00;;;;;;4971270;28;19917;-76
2023/05/29 13:54:07;;;;;;;;;;;27.30;54.60;;;;;;4971085;28;19910;-75
2023/05/29 13:56:33;;;;;;;;;;;27.30;54.70;;;;;;4971147;28;19910;-75
2023/05/29 13:59:04;;;;;;;;;;;27.30;54.20;;;;;;4970585;28;19910;-75
2023/05/29 14:01:30;;;;;;;;;;;27.20;55.00;;;;;;4971186;28;19909;-75
2023/05/29 14:03:56;;;;;;;;;;;27.30;54.50;;;;;;4970604;28;20458;-75
2023/05/29 14:06:21;;;;;;;;;;;27.10;53.10;;;;;;4970967;28;20350;-77
2023/05/29 14:08:47;;;;;;;;;;;27.10;54.60;;;;;;4971039;28;19906;-76
2023/05/29 14:11:13;;;;;;;;;;;27.20;56.60;;;;;;4970702;28;19909;-74
2023/05/29 14:13:38;;;;;;;;;;;27.10;54.90;;;;;;4970993;28;19949;-76